Time;durP1;ratioP1;P1;durP2;ratioP2;P2;SDS_P1;SDS_P2;PMS_P1;PMS_P2;Temp;Humidity;BMP_temperature;BMP_pressure;BME280_temperature;BME280_humidity;BME280_pressure;Samples;Min_cycle;Max_cycle;Signal;HPM_P1;HPM_P2
2023/08/18 00:00:28;;;;;;;5.30;2.75;;;23.40;99.90;;;;;;5106132;28;20202;-67
2023/08/18 00:02:55;;;;;;;3.90;2.70;;;23.40;99.90;;;;;;5106674;28;20230;-67
2023/08/18 00:05:22;;;;;;;4.82;3.15;;;23.30;99.90;;;;;;5105951;28;20289;-67
2023/08/18 00:07:51;;;;;;;3.45;3.13;;;23.20;99.90;;;;;;5105865;28;20238;-67
2023/08/18 00:10:18;;;;;;;5.85;3.03;;;23.30;99.90;;;;;;5094825;28;20229;-68
2023/08/18 00:12:44;;;;;;;4.20;3.08;;;23.20;99.90;;;;;;5084549;28;20989;-66
2023/08/18 00:15:11;;;;;;;3.80;2.95;;;23.30;99.90;;;;;;5085089;28;20207;-67
2023/08/18 00:17:41;;;;;;;3.08;2.83;;;23.20;99.90;;;;;;5084717;28;20740;-67
2023/08/18 00:20:09;;;;;;;6.20;3.45;;;23.20;99.90;;;;;;5093521;28;20233;-67
2023/08/18 00:22:36;;;;;;;6.07;3.67;;;23.20;99.90;;;;;;5089027;28;20214;-67
2023/08/18 00:25:05;;;;;;;3.38;3.10;;;23.20;99.90;;;;;;5085103;28;20255;-67
2023/08/18 00:27:32;;;;;;;7.50;3.45;;;23.20;99.90;;;;;;5084737;28;20218;-67
2023/08/18 00:29:59;;;;;;;5.82;3.53;;;23.30;99.90;;;;;;5091685;28;20210;-67
2023/08/18 00:32:25;;;;;;;6.45;3.35;;;23.20;99.90;;;;;;5105312;28;20234;-67
2023/08/18 00:34:52;;;;;;;4.60;3.15;;;23.20;99.90;;;;;;5104586;28;20656;-67
2023/08/18 00:37:19;;;;;;;4.05;3.33;;;23.10;99.90;;;;;;5105228;28;20321;-67
2023/08/18 00:39:46;;;;;;;5.30;3.15;;;23.10;99.90;;;;;;5085451;28;20205;-67
2023/08/18 00:42:14;;;;;;;3.20;2.92;;;23.10;99.90;;;;;;5115947;28;20351;-67
2023/08/18 00:44:41;;;;;;;3.80;3.38;;;23.20;99.90;;;;;;5105036;28;20202;-67
2023/08/18 00:47:09;;;;;;;3.90;3.33;;;23.20;99.90;;;;;;5105244;28;20729;-67
2023/08/18 00:49:36;;;;;;;3.50;3.20;;;23.20;99.90;;;;;;5105094;28;20292;-66
2023/08/18 00:52:03;;;;;;;3.50;3.20;;;23.20;99.90;;;;;;5099176;28;20229;-66
2023/08/18 00:54:31;;;;;;;5.03;3.00;;;23.20;99.90;;;;;;5084559;28;20206;-67
2023/08/18 00:56:58;;;;;;;3.33;3.13;;;23.20;99.90;;;;;;5084522;28;20297;-67
2023/08/18 00:59:27;;;;;;;3.83;3.42;;;23.20;99.90;;;;;;5087846;28;20299;-67
2023/08/18 01:01:54;;;;;;;5.70;3.40;;;23.20;99.90;;;;;;5089530;28;20300;-67
2023/08/18 01:04:20;;;;;;;4.18;3.15;;;23.20;99.90;;;;;;5088331;28;20266;-67
2023/08/18 01:06:47;;;;;;;3.80;3.50;;;23.20;99.90;;;;;;5088307;28;20210;-67
2023/08/18 01:09:15;;;;;;;4.68;3.47;;;23.20;99.90;;;;;;5088327;28;20302;-67
2023/08/18 01:11:51;;;;;;;4.93;3.90;;;23.20;99.90;;;;;;5088504;28;20314;-66
2023/08/18 01:14:28;;;;;;;3.72;3.47;;;23.10;99.90;;;;;;5088395;28;20201;-67
2023/08/18 01:17:01;;;;;;;3.97;3.63;;;23.10;99.90;;;;;;5088511;28;20297;-67
2023/08/18 01:19:29;;;;;;;3.92;3.55;;;23.00;99.90;;;;;;5088175;28;20195;-67
2023/08/18 01:21:58;;;;;;;3.97;3.58;;;23.00;99.90;;;;;;5091977;28;20203;-67
2023/08/18 01:24:26;;;;;;;5.72;3.75;;;23.10;99.90;;;;;;5108510;28;20302;-67
2023/08/18 01:26:53;;;;;;;4.30;3.92;;;23.10;99.90;;;;;;5107682;28;20297;-67
2023/08/18 01:29:22;;;;;;;7.25;3.72;;;23.10;99.90;;;;;;5108143;28;20233;-67
2023/08/18 01:31:51;;;;;;;4.10;3.65;;;23.10;99.90;;;;;;5107695;28;20222;-67
2023/08/18 01:34:20;;;;;;;4.00;3.70;;;23.10;99.90;;;;;;5112169;27;20210;-67
2023/08/18 01:36:49;;;;;;;5.22;4.18;;;23.00;99.90;;;;;;5107615;28;20206;-67
2023/08/18 01:39:19;;;;;;;4.25;3.92;;;22.90;99.90;;;;;;5107636;28;20763;-67
2023/08/18 01:41:49;;;;;;;4.32;4.03;;;23.00;99.90;;;;;;5105630;27;20293;-68
2023/08/18 01:44:18;;;;;;;4.90;4.20;;;22.90;99.90;;;;;;5087320;28;20211;-66
2023/08/18 01:46:45;;;;;;;4.47;3.95;;;22.90;99.90;;;;;;5087150;28;20290;-66
2023/08/18 01:49:12;;;;;;;4.78;4.22;;;22.90;99.90;;;;;;5087133;28;20692;-66
2023/08/18 01:51:39;;;;;;;4.55;3.97;;;22.90;99.90;;;;;;5087228;28;20314;-66
2023/08/18 01:54:06;;;;;;;4.45;4.03;;;22.90;99.90;;;;;;5087259;28;20241;-66
2023/08/18 01:56:33;;;;;;;5.25;4.30;;;22.90;99.90;;;;;;5086940;28;20203;-66
2023/08/18 01:59:04;;;;;;;5.40;4.15;;;22.90;99.90;;;;;;5087259;28;20202;-66
2023/08/18 02:01:31;;;;;;;6.35;4.40;;;22.80;99.90;;;;;;5086973;28;20222;-66
2023/08/18 02:03:58;;;;;;;4.47;4.15;;;22.90;99.90;;;;;;5087355;28;20631;-66
2023/08/18 02:06:25;;;;;;;4.88;4.47;;;22.90;99.90;;;;;;5087043;28;20206;-66
2023/08/18 02:08:51;;;;;;;4.47;4.07;;;22.90;99.90;;;;;;5086774;28;20295;-66
2023/08/18 02:11:18;;;;;;;4.38;4.07;;;22.80;99.90;;;;;;5098361;27;20305;-66
2023/08/18 02:13:45;;;;;;;6.90;4.55;;;22.90;99.90;;;;;;5088443;28;20242;-66
2023/08/18 02:16:13;;;;;;;5.68;4.95;;;22.80;99.90;;;;;;5087013;28;20305;-67
2023/08/18 02:18:40;;;;;;;5.07;4.68;;;22.80;99.90;;;;;;5098941;28;20202;-66
2023/08/18 02:21:07;;;;;;;8.05;4.63;;;22.80;99.90;;;;;;5106991;28;20202;-66
2023/08/18 02:23:34;;;;;;;5.50;4.80;;;22.80;99.90;;;;;;5104819;28;20309;-66
2023/08/18 02:26:02;;;;;;;6.03;4.80;;;22.80;99.90;;;;;;5106874;28;20781;-67
2023/08/18 02:28:30;;;;;;;5.35;4.85;;;22.80;99.90;;;;;;5107369;28;20212;-66
2023/08/18 02:31:02;;;;;;;5.68;5.18;;;22.80;99.90;;;;;;5095264;28;20206;-67
2023/08/18 02:33:30;;;;;;;4.82;4.45;;;22.80;99.90;;;;;;5088668;28;20600;-67
2023/08/18 02:35:58;;;;;;;5.47;4.95;;;22.80;99.90;;;;;;5083964;28;20301;-66
2023/08/18 02:38:25;;;;;;;6.72;5.45;;;22.70;99.90;;;;;;5084250;28;20295;-67
2023/08/18 02:40:52;;;;;;;5.95;5.13;;;22.70;99.90;;;;;;5084849;28;20217;-66
2023/08/18 02:43:20;;;;;;;5.78;5.20;;;22.70;99.90;;;;;;5084360;28;20291;-66
2023/08/18 02:45:47;;;;;;;5.20;4.78;;;22.70;99.90;;;;;;5085226;28;20213;-66
2023/08/18 02:48:14;;;;;;;5.80;5.30;;;22.60;99.90;;;;;;5084851;28;20237;-66
2023/08/18 02:50:42;;;;;;;4.93;4.63;;;22.50;99.90;;;;;;5084774;28;20214;-66
2023/08/18 02:53:09;;;;;;;5.60;5.10;;;22.60;99.90;;;;;;5084098;28;20787;-67
2023/08/18 02:55:36;;;;;;;8.25;5.25;;;22.50;99.90;;;;;;5089648;28;20221;-66
2023/08/18 02:58:03;;;;;;;8.65;5.47;;;22.50;99.90;;;;;;5084400;28;20203;-67
2023/08/18 03:00:31;;;;;;;7.97;5.30;;;22.60;99.90;;;;;;5084335;28;20222;-66
2023/08/18 03:02:58;;;;;;;5.78;5.22;;;22.60;99.90;;;;;;5084979;28;20280;-66
2023/08/18 03:05:25;;;;;;;6.78;5.32;;;22.60;99.90;;;;;;5083824;28;20724;-66
2023/08/18 03:07:53;;;;;;;5.55;5.05;;;22.60;99.90;;;;;;5085429;28;20211;-66
2023/08/18 03:10:20;;;;;;;7.60;5.10;;;22.60;99.90;;;;;;5094467;27;20221;-67
2023/08/18 03:12:47;;;;;;;8.68;5.25;;;22.60;99.90;;;;;;5105606;28;20312;-66
2023/08/18 03:15:14;;;;;;;8.63;4.85;;;22.60;99.90;;;;;;5105455;28;20206;-66
2023/08/18 03:17:41;;;;;;;5.15;4.70;;;22.60;99.90;;;;;;5106360;28;21113;-67
2023/08/18 03:20:09;;;;;;;4.88;4.47;;;22.60;99.90;;;;;;5088139;28;20892;-66
2023/08/18 03:22:36;;;;;;;5.43;4.95;;;22.60;99.90;;;;;;5085076;28;20218;-66
2023/08/18 03:25:05;;;;;;;5.55;4.97;;;22.60;99.90;;;;;;5085650;28;20600;-67
2023/08/18 03:27:32;;;;;;;6.07;5.25;;;22.60;99.90;;;;;;5101504;28;20221;-66
2023/08/18 03:29:59;;;;;;;7.15;5.68;;;22.60;99.90;;;;;;5098588;28;21001;-66
2023/08/18 03:32:26;;;;;;;6.05;5.65;;;22.60;99.90;;;;;;5084965;28;20317;-66
2023/08/18 03:34:54;;;;;;;6.35;5.68;;;22.50;99.90;;;;;;5085291;28;20305;-66
2023/08/18 03:37:21;;;;;;;6.35;5.75;;;22.50;99.90;;;;;;5084889;28;20243;-67
2023/08/18 03:39:49;;;;;;;5.68;5.25;;;22.50;99.90;;;;;;5085337;28;20197;-66
2023/08/18 03:42:17;;;;;;;5.65;5.15;;;22.50;99.90;;;;;;5104775;28;20212;-66
2023/08/18 03:44:44;;;;;;;5.45;5.10;;;22.50;99.90;;;;;;5105821;28;20289;-66
2023/08/18 03:47:11;;;;;;;6.30;5.80;;;22.50;99.90;;;;;;5106135;28;20241;-66
2023/08/18 03:49:37;;;;;;;6.35;5.75;;;22.50;99.90;;;;;;5106173;28;20220;-66
2023/08/18 03:52:05;;;;;;;7.63;5.57;;;22.50;99.90;;;;;;5105507;28;20588;-66
2023/08/18 03:54:32;;;;;;;6.35;5.65;;;22.40;99.90;;;;;;5105696;28;20285;-66
2023/08/18 03:56:59;;;;;;;6.72;6.22;;;22.40;99.90;;;;;;5105602;28;20201;-66
2023/08/18 03:59:27;;;;;;;7.82;6.93;;;22.40;99.90;;;;;;5105332;28;20318;-66
2023/08/18 04:01:54;;;;;;;7.18;6.53;;;22.40;99.90;;;;;;5105513;28;20257;-67
2023/08/18 04:04:21;;;;;;;8.02;7.25;;;22.40;99.90;;;;;;5105343;28;20206;-66
2023/08/18 04:06:47;;;;;;;7.60;6.72;;;22.40;99.90;;;;;;5105030;28;20324;-66
2023/08/18 04:09:15;;;;;;;11.70;7.72;;;22.40;99.90;;;;;;5105081;28;20790;-66
2023/08/18 04:11:43;;;;;;;7.93;7.10;;;22.40;99.90;;;;;;5105454;28;20214;-66
2023/08/18 04:14:11;;;;;;;10.32;7.38;;;22.30;99.90;;;;;;5105290;28;20259;-66
2023/08/18 04:16:38;;;;;;;7.20;6.50;;;22.30;99.90;;;;;;5104760;28;20737;-66
2023/08/18 04:19:05;;;;;;;9.52;7.93;;;22.40;99.90;;;;;;5105379;28;20213;-66
2023/08/18 04:25:25;;;;;;;13.27;9.80;;;22.40;99.90;;;;;;5085029;28;20202;-66
2023/08/18 04:27:52;;;;;;;10.85;9.43;;;22.30;99.90;;;;;;5114570;28;20288;-66
2023/08/18 04:30:19;;;;;;;16.60;11.13;;;22.30;99.90;;;;;;5125296;28;20204;-66
2023/08/18 04:32:47;;;;;;;17.15;12.20;;;22.30;99.90;;;;;;5128020;27;20261;-67
2023/08/18 05:59:21;;;;;;;23.33;14.52;;;22.40;99.90;;;;;;3395231;28;20282;-66
2023/08/18 06:01:50;;;;;;;21.08;13.98;;;22.40;99.90;;;;;;5107340;28;20315;-66
2023/08/18 06:04:16;;;;;;;23.23;14.80;;;22.40;99.90;;;;;;5107785;28;20214;-66
2023/08/18 06:06:43;;;;;;;23.75;14.95;;;22.40;99.90;;;;;;5106693;28;20210;-66
2023/08/18 06:09:13;;;;;;;24.70;14.20;;;22.40;99.90;;;;;;5106299;28;20214;-66
2023/08/18 06:11:41;;;;;;;24.63;14.95;;;22.40;99.90;;;;;;5107122;28;20206;-66
2023/08/18 06:14:11;;;;;;;22.35;13.07;;;22.50;99.90;;;;;;5107337;28;20237;-66
2023/08/18 06:16:39;;;;;;;22.35;13.60;;;22.50;99.90;;;;;;5107059;28;20210;-66
2023/08/18 06:19:08;;;;;;;19.83;12.80;;;22.50;99.90;;;;;;5107520;28;20214;-67
2023/08/18 06:21:36;;;;;;;21.60;13.25;;;22.60;99.90;;;;;;5106563;27;20637;-66
2023/08/18 06:24:04;;;;;;;19.00;13.25;;;22.70;99.90;;;;;;5104587;28;20625;-66
2023/08/18 06:26:31;;;;;;;17.75;13.18;;;22.70;99.90;;;;;;5106395;28;20227;-66
2023/08/18 06:28:58;;;;;;;17.20;12.48;;;22.80;99.90;;;;;;5106907;28;20206;-66
2023/08/18 06:31:25;;;;;;;18.17;12.35;;;22.90;99.90;;;;;;5106609;28;20234;-66
2023/08/18 06:33:55;;;;;;;15.07;11.00;;;22.90;99.90;;;;;;5106808;28;20234;-66
2023/08/18 06:36:22;;;;;;;16.40;11.70;;;22.90;99.90;;;;;;5106789;28;20206;-66
2023/08/18 06:38:49;;;;;;;15.55;11.38;;;23.00;99.90;;;;;;5106338;28;20660;-66
2023/08/18 06:41:16;;;;;;;16.70;11.80;;;23.00;99.90;;;;;;5106188;28;20676;-66
2023/08/18 06:43:43;;;;;;;12.80;10.55;;;23.10;99.90;;;;;;5106581;28;20230;-66
2023/08/18 06:46:10;;;;;;;16.05;9.95;;;23.10;99.90;;;;;;5106025;28;20205;-66
2023/08/18 06:48:36;;;;;;;12.38;8.65;;;23.20;99.90;;;;;;5106419;28;20301;-66
2023/08/18 06:51:05;;;;;;;9.43;8.52;;;23.20;99.90;;;;;;5105844;28;20316;-66
2023/08/18 06:53:31;;;;;;;8.63;7.75;;;23.20;99.90;;;;;;5106404;28;20229;-66
2023/08/18 06:55:58;;;;;;;8.30;7.60;;;23.30;99.90;;;;;;5105195;28;20297;-66
2023/08/18 06:58:25;;;;;;;7.88;7.20;;;23.30;99.90;;;;;;5106291;28;20205;-66
2023/08/18 07:00:53;;;;;;;7.75;7.00;;;23.40;99.90;;;;;;5105741;28;20692;-66
2023/08/18 07:03:19;;;;;;;7.70;7.07;;;23.40;99.90;;;;;;5104769;28;20205;-66
2023/08/18 07:05:46;;;;;;;7.97;7.20;;;23.40;99.90;;;;;;5085652;28;20206;-67
2023/08/18 07:08:23;;;;;;;7.30;6.80;;;23.40;99.90;;;;;;5086166;28;20213;-66
2023/08/18 07:10:50;;;;;;;7.47;6.88;;;23.50;99.90;;;;;;5094506;27;20210;-66
2023/08/18 07:13:16;;;;;;;7.68;6.90;;;23.50;99.90;;;;;;5127142;27;20682;-66
2023/08/18 07:15:43;;;;;;;6.93;6.35;;;23.60;99.90;;;;;;5126338;27;20264;-66
2023/08/18 07:18:10;;;;;;;7.28;6.47;;;23.60;99.90;;;;;;5127022;27;20208;-66
2023/08/18 07:20:37;;;;;;;6.78;6.25;;;23.70;99.90;;;;;;5109794;27;20498;-67
2023/08/18 07:23:04;;;;;;;7.65;6.50;;;23.70;99.90;;;;;;5105774;28;20216;-66
2023/08/18 07:25:32;;;;;;;7.25;6.43;;;23.70;99.90;;;;;;5105771;28;20672;-66
2023/08/18 07:27:59;;;;;;;7.13;6.53;;;23.80;99.90;;;;;;5106325;28;20292;-66
2023/08/18 07:30:29;;;;;;;6.45;5.85;;;23.80;99.90;;;;;;5095671;28;20332;-66
2023/08/18 07:32:56;;;;;;;6.28;5.72;;;23.80;99.90;;;;;;5085404;28;20214;-66
2023/08/18 07:35:23;;;;;;;6.90;6.30;;;23.90;99.90;;;;;;5085213;28;20210;-68
2023/08/18 07:37:50;;;;;;;7.13;6.38;;;23.90;99.90;;;;;;5085279;28;20207;-66
2023/08/18 07:40:17;;;;;;;6.90;5.97;;;23.90;99.90;;;;;;5085189;28;20325;-66
2023/08/18 07:42:46;;;;;;;6.45;5.95;;;24.00;99.90;;;;;;5085333;28;20263;-66
2023/08/18 07:45:13;;;;;;;6.78;6.13;;;24.00;99.90;;;;;;5085159;28;20297;-66
2023/08/18 07:47:42;;;;;;;7.35;6.75;;;24.10;99.90;;;;;;5085224;28;20305;-66
2023/08/18 07:50:11;;;;;;;7.38;6.68;;;24.10;99.90;;;;;;5085247;28;20214;-66
2023/08/18 07:52:38;;;;;;;6.20;5.75;;;24.20;99.90;;;;;;5085438;28;20225;-66
2023/08/18 07:55:07;;;;;;;7.22;6.10;;;24.20;99.90;;;;;;5085131;28;20234;-66
2023/08/18 07:57:34;;;;;;;6.88;6.22;;;24.20;99.90;;;;;;5085018;28;20239;-66
2023/08/18 08:00:07;;;;;;;6.45;6.00;;;24.20;99.90;;;;;;5085811;28;20779;-66
2023/08/18 08:02:35;;;;;;;6.40;5.88;;;24.30;99.90;;;;;;5085439;28;20291;-66
2023/08/18 08:05:05;;;;;;;6.28;5.68;;;24.30;99.90;;;;;;5085205;28;20612;-66
2023/08/18 08:07:33;;;;;;;5.88;5.57;;;24.40;99.90;;;;;;5086940;28;20190;-66
2023/08/18 08:10:03;;;;;;;6.15;5.70;;;24.40;99.90;;;;;;5090064;28;20210;-66
2023/08/18 08:12:30;;;;;;;6.78;6.07;;;24.40;99.90;;;;;;5109824;28;21003;-66
2023/08/18 08:14:57;;;;;;;7.28;6.57;;;24.40;99.90;;;;;;5109021;28;20712;-66
2023/08/18 08:17:25;;;;;;;6.55;5.90;;;24.50;99.90;;;;;;5089296;28;20293;-66
2023/08/18 08:19:52;;;;;;;5.55;5.15;;;24.60;99.90;;;;;;5089428;28;20206;-66
2023/08/18 08:22:19;;;;;;;6.00;5.57;;;24.60;99.90;;;;;;5089251;28;20297;-66
2023/08/18 08:24:46;;;;;;;7.20;5.97;;;24.60;99.90;;;;;;5089038;28;20759;-66
2023/08/18 08:27:15;;;;;;;8.05;6.05;;;24.70;99.90;;;;;;5088913;28;21042;-66
2023/08/18 08:29:42;;;;;;;6.95;6.43;;;24.80;99.90;;;;;;5088907;28;20618;-66
2023/08/18 08:32:09;;;;;;;5.97;5.47;;;24.80;99.90;;;;;;5089267;28;20282;-66
2023/08/18 08:34:40;;;;;;;5.68;5.25;;;24.80;99.90;;;;;;5089023;28;20682;-66
2023/08/18 08:37:07;;;;;;;6.22;5.45;;;24.90;99.90;;;;;;5088420;28;20191;-66
2023/08/18 08:39:34;;;;;;;5.53;5.03;;;24.90;99.90;;;;;;5089119;28;20213;-66
2023/08/18 08:42:00;;;;;;;6.07;5.47;;;25.00;99.90;;;;;;5105548;28;20216;-66
2023/08/18 08:44:27;;;;;;;6.32;5.82;;;25.00;99.90;;;;;;5108259;28;20206;-66
2023/08/18 08:46:54;;;;;;;6.95;6.18;;;25.10;99.90;;;;;;5108727;28;20217;-66
2023/08/18 08:49:24;;;;;;;5.43;5.13;;;25.20;99.90;;;;;;5108922;28;20212;-66
2023/08/18 08:51:55;;;;;;;6.25;5.65;;;25.30;99.90;;;;;;5108799;28;20222;-66
2023/08/18 08:54:26;;;;;;;7.65;5.25;;;25.30;99.90;;;;;;5108950;28;20222;-66
2023/08/18 08:56:53;;;;;;;5.60;5.00;;;25.40;99.90;;;;;;5108534;28;20210;-66
2023/08/18 08:59:21;;;;;;;5.63;5.07;;;25.40;99.90;;;;;;5108660;28;20277;-66
2023/08/18 09:01:48;;;;;;;6.05;5.53;;;25.50;99.90;;;;;;5109059;28;20289;-66
2023/08/18 09:04:16;;;;;;;5.95;5.35;;;25.60;99.90;;;;;;5109018;28;20237;-66
2023/08/18 09:06:43;;;;;;;6.85;5.63;;;25.60;99.90;;;;;;5108766;28;20305;-66
2023/08/18 09:09:13;;;;;;;5.82;5.32;;;25.70;99.90;;;;;;5108986;28;20210;-66
2023/08/18 09:11:45;;;;;;;8.25;5.43;;;25.70;99.90;;;;;;5094215;28;20216;-66
2023/08/18 09:14:17;;;;;;;6.38;5.75;;;25.80;99.90;;;;;;5088485;28;20222;-66
2023/08/18 09:16:45;;;;;;;7.32;5.78;;;25.80;99.90;;;;;;5088062;28;20318;-66
2023/08/18 09:19:13;;;;;;;7.20;5.53;;;26.00;99.90;;;;;;5087177;28;20214;-66
2023/08/18 09:21:40;;;;;;;5.47;5.18;;;26.10;99.90;;;;;;5087836;28;20215;-66
2023/08/18 09:24:07;;;;;;;6.00;5.55;;;26.10;99.90;;;;;;5100458;28;20285;-66
2023/08/18 09:26:36;;;;;;;5.55;5.13;;;26.20;99.90;;;;;;5108223;28;20292;-66
2023/08/18 09:29:03;;;;;;;5.40;4.90;;;26.30;99.90;;;;;;5108411;28;20280;-66
2023/08/18 09:31:30;;;;;;;7.10;5.35;;;26.30;99.90;;;;;;5107752;28;20300;-66
2023/08/18 09:33:58;;;;;;;4.95;4.55;;;26.40;99.90;;;;;;5108500;28;20240;-66
2023/08/18 09:36:26;;;;;;;5.72;5.22;;;26.50;99.90;;;;;;5108084;28;20244;-66
2023/08/18 09:38:53;;;;;;;6.43;4.75;;;26.60;99.90;;;;;;5107892;28;20621;-66
2023/08/18 09:41:21;;;;;;;5.60;5.10;;;26.70;99.90;;;;;;5108316;28;20732;-66
2023/08/18 09:43:49;;;;;;;5.15;4.85;;;26.70;99.90;;;;;;5108374;28;20210;-66
2023/08/18 09:46:17;;;;;;;6.25;4.80;;;26.80;99.90;;;;;;5107943;28;20695;-66
2023/08/18 09:48:46;;;;;;;4.88;4.45;;;26.80;99.90;;;;;;5107529;28;20246;-66
2023/08/18 09:51:15;;;;;;;5.40;4.70;;;26.80;99.90;;;;;;5107349;28;20226;-66
2023/08/18 09:53:50;;;;;;;5.63;5.13;;;27.00;99.90;;;;;;5106743;28;20325;-66
2023/08/18 09:56:25;;;;;;;4.90;4.55;;;27.10;99.90;;;;;;5107276;28;20193;-66
2023/08/18 09:59:04;;;;;;;5.20;4.80;;;27.20;99.90;;;;;;5107339;28;20315;-66
2023/08/18 10:01:35;;;;;;;4.63;4.32;;;27.30;99.90;;;;;;5107124;28;20679;-66
2023/08/18 10:04:03;;;;;;;5.18;4.70;;;27.30;99.90;;;;;;5106821;28;20201;-66
2023/08/18 10:06:31;;;;;;;5.18;4.70;;;27.40;99.90;;;;;;5106543;28;20306;-66
2023/08/18 10:09:00;;;;;;;5.93;5.03;;;27.50;99.90;;;;;;5106730;28;20970;-66
2023/08/18 10:11:27;;;;;;;6.40;5.28;;;27.60;99.90;;;;;;5107168;28;20563;-66
2023/08/18 10:13:57;;;;;;;4.45;4.15;;;27.70;99.90;;;;;;5106785;28;20257;-66
2023/08/18 10:16:24;;;;;;;6.13;4.80;;;27.70;99.90;;;;;;5107308;28;20288;-66
2023/08/18 10:18:56;;;;;;;5.57;4.88;;;27.70;99.90;;;;;;5107342;28;20210;-66
2023/08/18 10:21:23;;;;;;;5.22;4.63;;;27.80;99.90;;;;;;5106989;28;20190;-66
2023/08/18 10:23:50;;;;;;;6.10;4.85;;;27.80;99.90;;;;;;5107407;28;20212;-66
2023/08/18 10:26:17;;;;;;;5.00;4.60;;;28.00;99.90;;;;;;5107048;28;20293;-66
2023/08/18 10:28:44;;;;;;;4.78;4.43;;;28.20;99.90;;;;;;5106983;28;20907;-66
2023/08/18 10:31:16;;;;;;;5.32;4.88;;;28.30;99.90;;;;;;5106405;28;20656;-66
2023/08/18 10:33:44;;;;;;;5.70;4.28;;;28.40;99.90;;;;;;5106310;28;20193;-66
2023/08/18 10:36:15;;;;;;;4.72;4.32;;;28.50;99.90;;;;;;5106407;28;20296;-66
2023/08/18 10:38:42;;;;;;;4.70;4.30;;;28.70;99.90;;;;;;5106638;28;20571;-66
2023/08/18 10:41:11;;;;;;;7.20;4.43;;;28.80;99.90;;;;;;5116543;27;20660;-66
2023/08/18 10:43:51;;;;;;;4.90;4.40;;;28.90;99.90;;;;;;5127349;27;20739;-66
2023/08/18 10:46:35;;;;;;;4.32;4.10;;;28.90;99.90;;;;;;5127280;27;20217;-66
2023/08/18 10:49:02;;;;;;;4.30;4.10;;;29.00;99.90;;;;;;5118925;27;20253;-66
2023/08/18 10:51:29;;;;;;;4.78;4.10;;;29.00;99.90;;;;;;5106885;28;20375;-67
2023/08/18 10:53:56;;;;;;;4.30;4.10;;;29.10;99.90;;;;;;5106735;28;20321;-66
2023/08/18 10:56:23;;;;;;;3.70;3.50;;;29.20;99.90;;;;;;5106272;27;20289;-66
2023/08/18 10:58:51;;;;;;;4.53;4.13;;;29.30;99.90;;;;;;5106601;28;20210;-67
2023/08/18 11:01:20;;;;;;;4.68;4.10;;;29.30;99.90;;;;;;5106632;28;20236;-66
2023/08/18 11:03:49;;;;;;;4.43;4.07;;;29.40;99.90;;;;;;5104906;28;20210;-66
2023/08/18 11:06:16;;;;;;;4.20;3.80;;;29.40;99.90;;;;;;5086122;28;20214;-66
2023/08/18 11:08:44;;;;;;;4.15;3.92;;;29.50;99.90;;;;;;5085396;28;20873;-66
2023/08/18 11:11:11;;;;;;;4.30;4.03;;;29.70;99.90;;;;;;5085258;28;20218;-66
2023/08/18 11:13:37;;;;;;;7.40;4.18;;;29.80;99.90;;;;;;5085777;28;20202;-66
2023/08/18 11:16:04;;;;;;;4.10;3.78;;;29.90;99.90;;;;;;5085575;28;20230;-66
2023/08/18 11:18:31;;;;;;;4.53;4.20;;;30.00;99.90;;;;;;5085716;28;20301;-66
2023/08/18 11:21:00;;;;;;;4.53;4.03;;;30.00;99.90;;;;;;5085596;28;20637;-66
2023/08/18 11:23:27;;;;;;;4.35;3.97;;;30.10;99.90;;;;;;5085470;28;20294;-66
2023/08/18 11:25:55;;;;;;;4.80;4.30;;;30.20;99.90;;;;;;5085912;28;20242;-67
2023/08/18 11:28:22;;;;;;;4.60;4.30;;;30.30;99.90;;;;;;5086029;28;20202;-67
2023/08/18 11:30:49;;;;;;;4.50;4.20;;;30.30;99.90;;;;;;5085552;28;20570;-67
2023/08/18 11:33:16;;;;;;;5.05;3.75;;;30.50;99.90;;;;;;5085392;28;20258;-66
2023/08/18 11:35:44;;;;;;;4.60;4.20;;;30.50;99.90;;;;;;5085194;28;20723;-67
2023/08/18 11:38:13;;;;;;;4.47;4.18;;;30.50;99.90;;;;;;5085542;28;20277;-66
2023/08/18 11:40:40;;;;;;;4.85;4.18;;;30.50;99.90;;;;;;5091443;28;20216;-66
2023/08/18 11:43:11;;;;;;;4.68;4.20;;;30.60;99.90;;;;;;5105373;28;20297;-66
2023/08/18 11:45:38;;;;;;;4.40;4.07;;;30.70;99.90;;;;;;5095540;28;20289;-66
2023/08/18 11:48:07;;;;;;;4.45;4.05;;;30.70;99.90;;;;;;5085421;28;20206;-67
2023/08/18 11:50:35;;;;;;;5.25;4.25;;;30.80;99.90;;;;;;5085248;28;20268;-66
2023/08/18 11:53:03;;;;;;;5.28;4.85;;;30.90;99.90;;;;;;5094662;28;20629;-66
2023/08/18 11:55:33;;;;;;;4.70;4.30;;;30.90;99.90;;;;;;5105661;28;20230;-66
2023/08/18 11:58:04;;;;;;;5.90;4.65;;;31.10;99.90;;;;;;5105775;28;20210;-67
2023/08/18 12:00:34;;;;;;;4.68;4.20;;;31.10;99.90;;;;;;5099390;28;20277;-67
2023/08/18 12:03:02;;;;;;;4.75;4.43;;;31.20;99.90;;;;;;5084729;28;20206;-67
2023/08/18 12:05:30;;;;;;;4.70;4.30;;;31.40;99.90;;;;;;5085100;28;20726;-67
2023/08/18 12:08:00;;;;;;;6.00;4.40;;;31.40;99.90;;;;;;5085038;28;20301;-67
2023/08/18 12:10:27;;;;;;;4.43;4.22;;;31.50;99.90;;;;;;5088979;28;20259;-67
2023/08/18 12:12:56;;;;;;;4.22;4.03;;;31.50;99.90;;;;;;5105971;28;20205;-66
2023/08/18 12:15:25;;;;;;;4.80;4.43;;;31.70;99.90;;;;;;5105490;28;20689;-67
2023/08/18 12:17:52;;;;;;;4.70;4.40;;;31.80;99.90;;;;;;5105443;28;20589;-67
2023/08/18 12:20:20;;;;;;;4.22;3.92;;;31.90;99.90;;;;;;5105202;28;20216;-67
2023/08/18 12:22:49;;;;;;;4.93;4.50;;;31.90;99.90;;;;;;5104885;28;20202;-67
2023/08/18 12:25:16;;;;;;;4.63;4.32;;;32.00;99.90;;;;;;5105251;28;20318;-66
2023/08/18 12:27:45;;;;;;;5.00;4.50;;;32.10;99.90;;;;;;5105143;28;20221;-67
2023/08/18 12:30:14;;;;;;;5.20;4.20;;;32.20;99.90;;;;;;5105165;28;20310;-67
2023/08/18 12:32:41;;;;;;;4.68;4.22;;;32.30;99.90;;;;;;5105295;28;20599;-67
2023/08/18 12:35:08;;;;;;;5.15;4.65;;;32.40;99.90;;;;;;5105156;28;20225;-66
2023/08/18 12:37:36;;;;;;;4.60;4.30;;;32.60;99.90;;;;;;5105190;28;20289;-67
2023/08/18 12:40:05;;;;;;;4.80;4.50;;;32.70;99.90;;;;;;5105259;28;20290;-67
2023/08/18 12:42:32;;;;;;;4.72;4.43;;;32.70;99.90;;;;;;5089178;28;20215;-66
2023/08/18 12:44:59;;;;;;;4.93;4.50;;;32.80;99.90;;;;;;5084934;28;20297;-67
2023/08/18 12:47:27;;;;;;;4.65;4.25;;;32.80;99.90;;;;;;5084867;28;20198;-67
2023/08/18 12:49:54;;;;;;;4.57;4.28;;;32.90;99.90;;;;;;5099183;28;21247;-67
2023/08/18 12:52:21;;;;;;;4.10;3.90;;;33.00;99.90;;;;;;5104911;28;20206;-67
2023/08/18 12:54:49;;;;;;;4.07;3.88;;;33.10;99.90;;;;;;5109251;28;20586;-66
2023/08/18 12:57:16;;;;;;;4.70;4.20;;;33.10;99.90;;;;;;5095474;27;20629;-67
2023/08/18 12:59:43;;;;;;;4.57;4.18;;;33.20;99.90;;;;;;5103873;28;20781;-67
2023/08/18 13:02:10;;;;;;;4.78;4.43;;;33.20;99.90;;;;;;5106932;28;20241;-67
2023/08/18 13:04:38;;;;;;;4.80;4.30;;;33.20;99.90;;;;;;5106807;28;20255;-66
2023/08/18 13:07:05;;;;;;;4.53;4.13;;;33.30;99.90;;;;;;5113874;27;20288;-67
2023/08/18 13:09:33;;;;;;;4.70;4.30;;;33.10;99.90;;;;;;5104467;27;20210;-67
2023/08/18 13:12:01;;;;;;;4.68;4.40;;;33.00;99.90;;;;;;5106734;28;20217;-67
2023/08/18 13:14:28;;;;;;;4.78;4.55;;;32.80;99.90;;;;;;5088145;28;20230;-67
2023/08/18 13:16:54;;;;;;;4.70;4.40;;;32.70;99.90;;;;;;5086399;28;20238;-67
2023/08/18 13:19:21;;;;;;;5.07;4.78;;;32.60;99.90;;;;;;5086419;28;20241;-67
2023/08/18 13:21:50;;;;;;;5.40;4.93;;;32.40;99.90;;;;;;5086205;28;20298;-67
2023/08/18 13:24:16;;;;;;;5.43;4.93;;;32.20;99.90;;;;;;5086638;28;20772;-67
2023/08/18 13:26:43;;;;;;;5.70;5.07;;;32.00;99.90;;;;;;5098246;28;20202;-67
2023/08/18 13:29:10;;;;;;;5.03;4.65;;;31.90;99.90;;;;;;5107447;28;20302;-67
2023/08/18 13:31:37;;;;;;;5.45;5.00;;;31.90;99.90;;;;;;5086836;28;20298;-67
2023/08/18 13:34:04;;;;;;;5.35;4.90;;;31.80;99.90;;;;;;5086665;28;20210;-67
2023/08/18 13:36:31;;;;;;;5.20;4.80;;;31.70;99.90;;;;;;5095659;28;20696;-67
2023/08/18 13:38:59;;;;;;;5.03;4.72;;;31.70;99.90;;;;;;5104911;28;20209;-67
2023/08/18 13:41:26;;;;;;;4.60;4.30;;;31.70;99.90;;;;;;5106223;28;20731;-67
2023/08/18 13:43:53;;;;;;;5.05;4.75;;;31.60;99.90;;;;;;5105900;28;20309;-67
2023/08/18 13:46:20;;;;;;;5.00;4.60;;;31.60;99.90;;;;;;5097501;28;20654;-67
2023/08/18 13:48:47;;;;;;;4.72;4.30;;;31.60;99.90;;;;;;5085420;28;20628;-66
2023/08/18 13:51:14;;;;;;;5.60;5.20;;;31.60;99.90;;;;;;5085588;28;20223;-67
2023/08/18 13:53:41;;;;;;;5.05;4.65;;;31.60;99.90;;;;;;5085099;28;20305;-67
2023/08/18 13:56:09;;;;;;;5.22;4.72;;;31.60;99.90;;;;;;5097023;27;20257;-67
2023/08/18 13:58:36;;;;;;;5.53;4.82;;;31.60;99.90;;;;;;5105492;28;20956;-67
2023/08/18 14:01:04;;;;;;;4.72;4.43;;;31.60;99.90;;;;;;5105665;28;20293;-67
2023/08/18 14:03:31;;;;;;;6.20;5.03;;;31.60;99.90;;;;;;5105776;28;20206;-67
2023/08/18 14:05:58;;;;;;;5.38;4.88;;;31.60;99.90;;;;;;5104763;28;20284;-67
2023/08/18 14:08:25;;;;;;;4.93;4.63;;;31.60;99.90;;;;;;5105439;28;20288;-67
2023/08/18 14:10:52;;;;;;;5.45;4.97;;;31.60;99.90;;;;;;5106448;27;20582;-67
2023/08/18 14:13:20;;;;;;;5.85;5.40;;;31.70;99.90;;;;;;5106001;28;20241;-67
2023/08/18 14:15:47;;;;;;;5.30;4.95;;;31.70;99.90;;;;;;5102785;28;20703;-67